sensor_id;sensor_type;location;lat;lon;timestamp;pressure;altitude;pressure_sealevel;temperature;humidity
62948;BME280;51940;52.126;-0.994;2023-03-13T00:01:16;98300.30;;;10.42;100.00
62948;BME280;51940;52.126;-0.994;2023-03-13T00:03:41;98303.48;;;10.43;100.00
62948;BME280;51940;52.126;-0.994;2023-03-13T00:06:07;98305.27;;;10.43;100.00
62948;BME280;51940;52.126;-0.994;2023-03-13T00:08:32;98292.73;;;10.44;100.00
62948;BME280;51940;52.126;-0.994;2023-03-13T00:11:01;98286.84;;;10.44;100.00
62948;BME280;51940;52.126;-0.994;2023-03-13T00:13:26;98279.84;;;10.45;100.00
62948;BME280;51940;52.126;-0.994;2023-03-13T00:15:58;98263.91;;;10.46;100.00
62948;BME280;51940;52.126;-0.994;2023-03-13T00:18:25;98245.79;;;10.48;100.00
62948;BME280;51940;52.126;-0.994;2023-03-13T00:20:56;98239.27;;;10.50;100.00
62948;BME280;51940;52.126;-0.994;2023-03-13T00:23:21;98233.71;;;10.50;100.00
62948;BME280;51940;52.126;-0.994;2023-03-13T00:25:54;98223.00;;;10.51;100.00
62948;BME280;51940;52.126;-0.994;2023-03-13T00:28:19;98211.65;;;10.53;100.00
62948;BME280;51940;52.126;-0.994;2023-03-13T00:30:45;98198.83;;;10.53;100.00
62948;BME280;51940;52.126;-0.994;2023-03-13T00:33:10;98193.13;;;10.53;100.00
62948;BME280;51940;52.126;-0.994;2023-03-13T00:35:35;98193.73;;;10.52;100.00
62948;BME280;51940;52.126;-0.994;2023-03-13T00:38:00;98193.83;;;10.50;100.00
62948;BME280;51940;52.126;-0.994;2023-03-13T00:40:26;98195.21;;;10.50;100.00
62948;BME280;51940;52.126;-0.994;2023-03-13T00:42:51;98206.43;;;10.50;100.00
62948;BME280;51940;52.126;-0.994;2023-03-13T00:45:16;98211.80;;;10.50;100.00
62948;BME280;51940;52.126;-0.994;2023-03-13T00:47:41;98214.83;;;10.50;100.00
62948;BME280;51940;52.126;-0.994;2023-03-13T00:50:07;98214.80;;;10.51;100.00
62948;BME280;51940;52.126;-0.994;2023-03-13T00:52:32;98211.39;;;10.51;100.00
62948;BME280;51940;52.126;-0.994;2023-03-13T00:54:57;98198.52;;;10.52;100.00
62948;BME280;51940;52.126;-0.994;2023-03-13T00:57:23;98196.52;;;10.53;100.00
62948;BME280;51940;52.126;-0.994;2023-03-13T00:59:48;98206.46;;;10.53;100.00
62948;BME280;51940;52.126;-0.994;2023-03-13T01:02:13;98205.34;;;10.54;100.00
62948;BME280;51940;52.126;-0.994;2023-03-13T01:04:38;98204.98;;;10.54;100.00
62948;BME280;51940;52.126;-0.994;2023-03-13T01:07:04;98204.93;;;10.55;100.00
62948;BME280;51940;52.126;-0.994;2023-03-13T01:09:30;98197.20;;;10.56;100.00
62948;BME280;51940;52.126;-0.994;2023-03-13T01:11:55;98185.55;;;10.57;100.00
62948;BME280;51940;52.126;-0.994;2023-03-13T01:14:21;98176.55;;;10.58;100.00
62948;BME280;51940;52.126;-0.994;2023-03-13T01:16:46;98176.65;;;10.60;100.00
62948;BME280;51940;52.126;-0.994;2023-03-13T01:19:12;98173.08;;;10.60;100.00
62948;BME280;51940;52.126;-0.994;2023-03-13T01:21:38;98171.23;;;10.61;100.00
62948;BME280;51940;52.126;-0.994;2023-03-13T01:24:04;98171.54;;;10.62;100.00
62948;BME280;51940;52.126;-0.994;2023-03-13T01:26:29;98169.34;;;10.63;100.00
62948;BME280;51940;52.126;-0.994;2023-03-13T01:28:54;98161.40;;;10.62;100.00
62948;BME280;51940;52.126;-0.994;2023-03-13T01:31:21;98153.21;;;10.62;100.00
62948;BME280;51940;52.126;-0.994;2023-03-13T01:33:47;98139.89;;;10.63;100.00
62948;BME280;51940;52.126;-0.994;2023-03-13T01:36:13;98131.86;;;10.63;100.00
62948;BME280;51940;52.126;-0.994;2023-03-13T01:38:39;98127.11;;;10.62;100.00
62948;BME280;51940;52.126;-0.994;2023-03-13T01:41:05;98123.06;;;10.62;100.00
62948;BME280;51940;52.126;-0.994;2023-03-13T01:43:32;98121.81;;;10.64;100.00
62948;BME280;51940;52.126;-0.994;2023-03-13T01:48:34;98106.13;;;10.65;100.00
62948;BME280;51940;52.126;-0.994;2023-03-13T01:51:02;98113.55;;;10.65;100.00
62948;BME280;51940;52.126;-0.994;2023-03-13T01:53:29;98114.83;;;10.65;100.00
62948;BME280;51940;52.126;-0.994;2023-03-13T01:55:56;98106.91;;;10.64;100.00
62948;BME280;51940;52.126;-0.994;2023-03-13T01:58:22;98096.73;;;10.64;100.00
62948;BME280;51940;52.126;-0.994;2023-03-13T02:00:47;98094.14;;;10.65;100.00
62948;BME280;51940;52.126;-0.994;2023-03-13T02:03:13;98092.86;;;10.65;100.00
62948;BME280;51940;52.126;-0.994;2023-03-13T02:05:41;98090.17;;;10.66;100.00
62948;BME280;51940;52.126;-0.994;2023-03-13T02:10:33;98075.94;;;10.65;100.00
62948;BME280;51940;52.126;-0.994;2023-03-13T02:13:01;98076.73;;;10.64;100.00
62948;BME280;51940;52.126;-0.994;2023-03-13T02:15:28;98073.13;;;10.62;100.00
62948;BME280;51940;52.126;-0.994;2023-03-13T02:17:55;98062.55;;;10.60;100.00
62948;BME280;51940;52.126;-0.994;2023-03-13T02:20:20;98062.79;;;10.59;100.00
62948;BME280;51940;52.126;-0.994;2023-03-13T02:25:15;98035.29;;;10.57;100.00
62948;BME280;51940;52.126;-0.994;2023-03-13T02:27:44;98033.44;;;10.55;100.00
62948;BME280;51940;52.126;-0.994;2023-03-13T02:30:12;98029.79;;;10.54;100.00
62948;BME280;51940;52.126;-0.994;2023-03-13T02:32:39;98023.62;;;10.53;100.00
62948;BME280;51940;52.126;-0.994;2023-03-13T02:35:06;98014.80;;;10.51;100.00
62948;BME280;51940;52.126;-0.994;2023-03-13T02:37:32;98007.02;;;10.50;100.00
62948;BME280;51940;52.126;-0.994;2023-03-13T02:39:59;98005.11;;;10.50;100.00
62948;BME280;51940;52.126;-0.994;2023-03-13T02:42:25;97998.46;;;10.50;100.00
62948;BME280;51940;52.126;-0.994;2023-03-13T02:44:52;97990.81;;;10.50;100.00
62948;BME280;51940;52.126;-0.994;2023-03-13T02:47:18;97989.13;;;10.49;100.00
62948;BME280;51940;52.126;-0.994;2023-03-13T02:49:44;97986.39;;;10.47;100.00
62948;BME280;51940;52.126;-0.994;2023-03-13T02:54:35;97965.16;;;10.47;100.00
62948;BME280;51940;52.126;-0.994;2023-03-13T02:57:03;97968.63;;;10.49;100.00
62948;BME280;51940;52.126;-0.994;2023-03-13T02:59:29;97964.30;;;10.49;100.00
62948;BME280;51940;52.126;-0.994;2023-03-13T03:01:55;97966.10;;;10.49;100.00
62948;BME280;51940;52.126;-0.994;2023-03-13T03:04:20;97964.40;;;10.51;100.00
62948;BME280;51940;52.126;-0.994;2023-03-13T03:06:46;97960.08;;;10.52;100.00
62948;BME280;51940;52.126;-0.994;2023-03-13T03:09:12;97964.84;;;10.52;100.00
62948;BME280;51940;52.126;-0.994;2023-03-13T03:11:39;97962.98;;;10.54;100.00
62948;BME280;51940;52.126;-0.994;2023-03-13T03:14:04;97964.98;;;10.56;100.00
62948;BME280;51940;52.126;-0.994;2023-03-13T03:16:29;97963.02;;;10.58;100.00
62948;BME280;51940;52.126;-0.994;2023-03-13T03:18:55;97962.73;;;10.60;100.00
62948;BME280;51940;52.126;-0.994;2023-03-13T03:21:20;97957.35;;;10.61;100.00
62948;BME280;51940;52.126;-0.994;2023-03-13T03:23:46;97957.95;;;10.62;100.00
62948;BME280;51940;52.126;-0.994;2023-03-13T03:26:11;97946.92;;;10.62;100.00
62948;BME280;51940;52.126;-0.994;2023-03-13T03:28:37;97945.77;;;10.63;100.00
62948;BME280;51940;52.126;-0.994;2023-03-13T03:31:04;97950.16;;;10.64;100.00
62948;BME280;51940;52.126;-0.994;2023-03-13T03:33:29;97954.76;;;10.65;100.00
62948;BME280;51940;52.126;-0.994;2023-03-13T03:35:58;97946.44;;;10.67;100.00
62948;BME280;51940;52.126;-0.994;2023-03-13T03:38:25;97940.61;;;10.69;100.00
62948;BME280;51940;52.126;-0.994;2023-03-13T03:40:52;97941.88;;;10.71;100.00
62948;BME280;51940;52.126;-0.994;2023-03-13T03:43:17;97941.84;;;10.72;100.00
62948;BME280;51940;52.126;-0.994;2023-03-13T03:45:42;97937.00;;;10.72;100.00
62948;BME280;51940;52.126;-0.994;2023-03-13T03:48:08;97933.30;;;10.71;100.00
62948;BME280;51940;52.126;-0.994;2023-03-13T03:50:33;97931.70;;;10.71;100.00
62948;BME280;51940;52.126;-0.994;2023-03-13T03:52:58;97930.16;;;10.70;100.00
62948;BME280;51940;52.126;-0.994;2023-03-13T03:55:24;97926.82;;;10.70;100.00
62948;BME280;51940;52.126;-0.994;2023-03-13T03:57:50;97933.41;;;10.70;100.00
62948;BME280;51940;52.126;-0.994;2023-03-13T04:00:15;97930.92;;;10.70;100.00
62948;BME280;51940;52.126;-0.994;2023-03-13T04:02:42;97923.66;;;10.69;100.00
62948;BME280;51940;52.126;-0.994;2023-03-13T04:05:08;97927.63;;;10.68;100.00
62948;BME280;51940;52.126;-0.994;2023-03-13T04:07:33;97921.96;;;10.68;100.00
62948;BME280;51940;52.126;-0.994;2023-03-13T04:09:58;97932.95;;;10.69;100.00
62948;BME280;51940;52.126;-0.994;2023-03-13T04:12:24;97930.92;;;10.70;100.00
62948;BME280;51940;52.126;-0.994;2023-03-13T04:14:49;97922.29;;;10.71;100.00
62948;BME280;51940;52.126;-0.994;2023-03-13T04:17:14;97920.20;;;10.73;100.00
62948;BME280;51940;52.126;-0.994;2023-03-13T04:19:39;97913.23;;;10.73;100.00
62948;BME280;51940;52.126;-0.994;2023-03-13T04:22:05;97916.81;;;10.73;100.00
62948;BME280;51940;52.126;-0.994;2023-03-13T04:24:30;97917.96;;;10.71;100.00
62948;BME280;51940;52.126;-0.994;2023-03-13T04:26:55;97916.10;;;10.70;100.00
62948;BME280;51940;52.126;-0.994;2023-03-13T04:29:20;97909.23;;;10.69;100.00
62948;BME280;51940;52.126;-0.994;2023-03-13T04:31:46;97888.95;;;10.65;100.00
62948;BME280;51940;52.126;-0.994;2023-03-13T04:34:11;97882.14;;;10.61;100.00
62948;BME280;51940;52.126;-0.994;2023-03-13T04:36:37;97873.00;;;10.56;100.00
62948;BME280;51940;52.126;-0.994;2023-03-13T04:39:02;97865.73;;;10.50;100.00
62948;BME280;51940;52.126;-0.994;2023-03-13T04:41:28;97860.65;;;10.43;100.00
62948;BME280;51940;52.126;-0.994;2023-03-13T04:43:53;97857.60;;;10.38;100.00
62948;BME280;51940;52.126;-0.994;2023-03-13T04:46:18;97849.02;;;10.33;100.00
62948;BME280;51940;52.126;-0.994;2023-03-13T04:48:43;97855.42;;;10.27;100.00
62948;BME280;51940;52.126;-0.994;2023-03-13T04:51:09;97852.11;;;10.23;100.00
62948;BME280;51940;52.126;-0.994;2023-03-13T04:53:35;97848.96;;;10.22;100.00
62948;BME280;51940;52.126;-0.994;2023-03-13T04:56:00;97845.98;;;10.25;100.00
62948;BME280;51940;52.126;-0.994;2023-03-13T04:58:25;97844.91;;;10.27;100.00
62948;BME280;51940;52.126;-0.994;2023-03-13T05:00:51;97846.24;;;10.31;100.00
62948;BME280;51940;52.126;-0.994;2023-03-13T05:03:17;97848.20;;;10.34;100.00
62948;BME280;51940;52.126;-0.994;2023-03-13T05:05:42;97840.36;;;10.37;100.00
62948;BME280;51940;52.126;-0.994;2023-03-13T05:08:08;97835.35;;;10.40;100.00
62948;BME280;51940;52.126;-0.994;2023-03-13T05:10:34;97824.90;;;10.41;100.00
62948;BME280;51940;52.126;-0.994;2023-03-13T05:13:00;97822.72;;;10.43;100.00
62948;BME280;51940;52.126;-0.994;2023-03-13T05:15:25;97820.70;;;10.44;100.00
62948;BME280;51940;52.126;-0.994;2023-03-13T05:17:51;97821.36;;;10.44;100.00
62948;BME280;51940;52.126;-0.994;2023-03-13T05:20:17;97807.38;;;10.43;100.00
62948;BME280;51940;52.126;-0.994;2023-03-13T05:22:42;97814.46;;;10.40;100.00
62948;BME280;51940;52.126;-0.994;2023-03-13T05:25:07;97814.27;;;10.38;100.00
62948;BME280;51940;52.126;-0.994;2023-03-13T05:27:33;97818.07;;;10.37;100.00
62948;BME280;51940;52.126;-0.994;2023-03-13T05:29:58;97817.09;;;10.36;100.00
62948;BME280;51940;52.126;-0.994;2023-03-13T05:32:23;97817.73;;;10.34;100.00
62948;BME280;51940;52.126;-0.994;2023-03-13T05:34:48;97804.79;;;10.30;100.00
62948;BME280;51940;52.126;-0.994;2023-03-13T05:37:14;97815.02;;;10.27;100.00
62948;BME280;51940;52.126;-0.994;2023-03-13T05:39:39;97805.14;;;10.22;100.00
62948;BME280;51940;52.126;-0.994;2023-03-13T05:42:04;97812.50;;;10.18;100.00
62948;BME280;51940;52.126;-0.994;2023-03-13T05:44:29;97820.91;;;10.14;100.00
62948;BME280;51940;52.126;-0.994;2023-03-13T05:46:55;97823.14;;;10.10;100.00
62948;BME280;51940;52.126;-0.994;2023-03-13T05:49:20;97819.20;;;10.08;100.00
62948;BME280;51940;52.126;-0.994;2023-03-13T05:51:45;97819.92;;;10.08;100.00
62948;BME280;51940;52.126;-0.994;2023-03-13T05:54:10;97813.89;;;10.10;100.00
62948;BME280;51940;52.126;-0.994;2023-03-13T05:56:36;97812.01;;;10.12;100.00
62948;BME280;51940;52.126;-0.994;2023-03-13T05:59:01;97798.70;;;10.11;100.00
62948;BME280;51940;52.126;-0.994;2023-03-13T06:01:26;97792.80;;;10.11;100.00
62948;BME280;51940;52.126;-0.994;2023-03-13T06:03:51;97788.73;;;10.11;100.00
62948;BME280;51940;52.126;-0.994;2023-03-13T06:06:17;97780.85;;;10.09;100.00
62948;BME280;51940;52.126;-0.994;2023-03-13T06:08:42;97775.92;;;10.08;100.00
62948;BME280;51940;52.126;-0.994;2023-03-13T06:11:07;97776.81;;;10.08;100.00
62948;BME280;51940;52.126;-0.994;2023-03-13T06:13:33;97772.98;;;10.06;100.00
62948;BME280;51940;52.126;-0.994;2023-03-13T06:15:58;97773.77;;;10.05;100.00
62948;BME280;51940;52.126;-0.994;2023-03-13T06:18:23;97767.98;;;10.04;100.00
62948;BME280;51940;52.126;-0.994;2023-03-13T06:20:54;97766.84;;;10.02;100.00
62948;BME280;51940;52.126;-0.994;2023-03-13T06:23:20;97761.79;;;10.01;100.00
62948;BME280;51940;52.126;-0.994;2023-03-13T06:25:46;97769.60;;;9.98;100.00
62948;BME280;51940;52.126;-0.994;2023-03-13T06:28:11;97763.95;;;9.95;100.00
62948;BME280;51940;52.126;-0.994;2023-03-13T06:30:36;97760.98;;;9.94;100.00
62948;BME280;51940;52.126;-0.994;2023-03-13T06:33:02;97757.14;;;9.96;100.00
62948;BME280;51940;52.126;-0.994;2023-03-13T06:35:27;97753.35;;;9.99;100.00
62948;BME280;51940;52.126;-0.994;2023-03-13T06:37:52;97748.32;;;10.03;100.00
62948;BME280;51940;52.126;-0.994;2023-03-13T06:40:18;97740.40;;;10.06;100.00
62948;BME280;51940;52.126;-0.994;2023-03-13T06:42:43;97734.95;;;10.11;100.00
62948;BME280;51940;52.126;-0.994;2023-03-13T06:45:09;97730.90;;;10.15;100.00
62948;BME280;51940;52.126;-0.994;2023-03-13T06:47:34;97720.49;;;10.20;100.00
62948;BME280;51940;52.126;-0.994;2023-03-13T06:49:59;97710.77;;;10.24;100.00
62948;BME280;51940;52.126;-0.994;2023-03-13T06:52:25;97708.16;;;10.32;100.00
62948;BME280;51940;52.126;-0.994;2023-03-13T06:54:50;97705.70;;;10.39;100.00
62948;BME280;51940;52.126;-0.994;2023-03-13T06:57:15;97711.05;;;10.44;100.00
62948;BME280;51940;52.126;-0.994;2023-03-13T06:59:40;97713.55;;;10.47;100.00
62948;BME280;51940;52.126;-0.994;2023-03-13T07:02:07;97716.45;;;10.51;100.00
62948;BME280;51940;52.126;-0.994;2023-03-13T07:04:34;97714.15;;;10.56;100.00
62948;BME280;51940;52.126;-0.994;2023-03-13T07:06:59;97724.48;;;10.60;100.00
62948;BME280;51940;52.126;-0.994;2023-03-13T07:09:25;97719.86;;;10.62;100.00
62948;BME280;51940;52.126;-0.994;2023-03-13T07:11:50;97720.23;;;10.64;100.00
62948;BME280;51940;52.126;-0.994;2023-03-13T07:14:15;97717.76;;;10.61;100.00
62948;BME280;51940;52.126;-0.994;2023-03-13T07:16:41;97707.23;;;10.56;100.00
62948;BME280;51940;52.126;-0.994;2023-03-13T07:19:06;97703.67;;;10.54;100.00
62948;BME280;51940;52.126;-0.994;2023-03-13T07:21:31;97694.55;;;10.51;100.00
62948;BME280;51940;52.126;-0.994;2023-03-13T07:23:56;97694.83;;;10.53;100.00
62948;BME280;51940;52.126;-0.994;2023-03-13T07:26:22;97688.69;;;10.51;100.00
62948;BME280;51940;52.126;-0.994;2023-03-13T07:28:47;97684.92;;;10.49;100.00
62948;BME280;51940;52.126;-0.994;2023-03-13T07:31:14;97687.73;;;10.47;100.00
62948;BME280;51940;52.126;-0.994;2023-03-13T07:33:40;97695.55;;;10.47;100.00
62948;BME280;51940;52.126;-0.994;2023-03-13T07:36:06;97694.16;;;10.52;100.00
62948;BME280;51940;52.126;-0.994;2023-03-13T07:38:31;97699.89;;;10.57;100.00
62948;BME280;51940;52.126;-0.994;2023-03-13T07:40:56;97704.08;;;10.61;100.00
62948;BME280;51940;52.126;-0.994;2023-03-13T07:43:22;97701.41;;;10.63;100.00
62948;BME280;51940;52.126;-0.994;2023-03-13T07:45:58;97698.85;;;10.69;100.00
62948;BME280;51940;52.126;-0.994;2023-03-13T07:48:27;97704.17;;;10.78;100.00
62948;BME280;51940;52.126;-0.994;2023-03-13T07:50:53;97701.65;;;10.88;100.00
62948;BME280;51940;52.126;-0.994;2023-03-13T07:53:19;97700.98;;;11.11;100.00
62948;BME280;51940;52.126;-0.994;2023-03-13T07:55:55;97702.72;;;11.17;100.00
62948;BME280;51940;52.126;-0.994;2023-03-13T07:58:22;97702.27;;;11.13;100.00
62948;BME280;51940;52.126;-0.994;2023-03-13T08:00:47;97700.84;;;11.16;100.00
62948;BME280;51940;52.126;-0.994;2023-03-13T08:03:13;97701.61;;;11.25;100.00
62948;BME280;51940;52.126;-0.994;2023-03-13T08:05:38;97686.19;;;11.26;100.00
62948;BME280;51940;52.126;-0.994;2023-03-13T08:08:04;97690.21;;;11.24;100.00
62948;BME280;51940;52.126;-0.994;2023-03-13T08:10:29;97689.40;;;11.39;100.00
62948;BME280;51940;52.126;-0.994;2023-03-13T08:12:55;97680.11;;;11.59;100.00
62948;BME280;51940;52.126;-0.994;2023-03-13T08:15:20;97674.92;;;11.61;100.00
62948;BME280;51940;52.126;-0.994;2023-03-13T08:17:49;97675.65;;;11.56;100.00
62948;BME280;51940;52.126;-0.994;2023-03-13T08:20:15;97668.59;;;11.48;100.00
62948;BME280;51940;52.126;-0.994;2023-03-13T08:22:41;97668.31;;;11.39;100.00
62948;BME280;51940;52.126;-0.994;2023-03-13T08:25:06;97661.52;;;11.32;100.00
62948;BME280;51940;52.126;-0.994;2023-03-13T08:27:32;97662.93;;;11.24;100.00
62948;BME280;51940;52.126;-0.994;2023-03-13T08:29:57;97662.56;;;11.22;100.00
62948;BME280;51940;52.126;-0.994;2023-03-13T08:32:22;97668.09;;;11.22;100.00
62948;BME280;51940;52.126;-0.994;2023-03-13T08:34:48;97668.71;;;11.18;100.00
62948;BME280;51940;52.126;-0.994;2023-03-13T08:37:16;97677.03;;;11.14;100.00
62948;BME280;51940;52.126;-0.994;2023-03-13T08:39:41;97674.08;;;11.11;100.00
62948;BME280;51940;52.126;-0.994;2023-03-13T08:42:10;97668.05;;;11.05;100.00
62948;BME280;51940;52.126;-0.994;2023-03-13T08:44:35;97674.81;;;11.03;100.00
62948;BME280;51940;52.126;-0.994;2023-03-13T08:47:01;97668.52;;;11.06;100.00
62948;BME280;51940;52.126;-0.994;2023-03-13T08:49:27;97663.70;;;11.14;100.00
62948;BME280;51940;52.126;-0.994;2023-03-13T08:51:54;97657.83;;;11.18;100.00
62948;BME280;51940;52.126;-0.994;2023-03-13T08:54:22;97659.05;;;11.26;100.00
62948;BME280;51940;52.126;-0.994;2023-03-13T08:56:47;97652.87;;;11.36;100.00
62948;BME280;51940;52.126;-0.994;2023-03-13T08:59:13;97645.44;;;11.45;100.00
62948;BME280;51940;52.126;-0.994;2023-03-13T09:01:39;97657.31;;;11.51;100.00
62948;BME280;51940;52.126;-0.994;2023-03-13T09:04:05;97658.34;;;11.56;100.00
62948;BME280;51940;52.126;-0.994;2023-03-13T09:06:31;97648.41;;;11.62;100.00
62948;BME280;51940;52.126;-0.994;2023-03-13T09:08:57;97641.60;;;11.68;100.00
62948;BME280;51940;52.126;-0.994;2023-03-13T09:11:23;97659.52;;;11.65;100.00
62948;BME280;51940;52.126;-0.994;2023-03-13T09:13:49;97671.14;;;11.57;100.00
62948;BME280;51940;52.126;-0.994;2023-03-13T09:16:21;97686.58;;;11.46;100.00
62948;BME280;51940;52.126;-0.994;2023-03-13T09:18:47;97690.27;;;11.32;100.00
62948;BME280;51940;52.126;-0.994;2023-03-13T09:21:18;97695.63;;;11.16;100.00
62948;BME280;51940;52.126;-0.994;2023-03-13T09:23:43;97692.41;;;11.01;100.00
62948;BME280;51940;52.126;-0.994;2023-03-13T09:26:09;97690.02;;;10.92;100.00
62948;BME280;51940;52.126;-0.994;2023-03-13T09:28:34;97691.73;;;10.87;100.00
62948;BME280;51940;52.126;-0.994;2023-03-13T09:31:33;97684.23;;;10.90;100.00
62948;BME280;51940;52.126;-0.994;2023-03-13T09:33:51;97679.42;;;10.98;100.00
62948;BME280;51940;52.126;-0.994;2023-03-13T09:36:17;97675.74;;;11.07;100.00
62948;BME280;51940;52.126;-0.994;2023-03-13T09:38:43;97681.42;;;11.13;100.00
62948;BME280;51940;52.126;-0.994;2023-03-13T09:44:32;97662.34;;;11.30;100.00
62948;BME280;51940;52.126;-0.994;2023-03-13T09:47:15;97677.85;;;11.41;100.00
62948;BME280;51940;52.126;-0.994;2023-03-13T09:49:38;97680.57;;;11.43;100.00
62948;BME280;51940;52.126;-0.994;2023-03-13T09:54:35;97689.62;;;11.25;100.00
62948;BME280;51940;52.126;-0.994;2023-03-13T09:57:14;97690.48;;;11.18;100.00
62948;BME280;51940;52.126;-0.994;2023-03-13T10:02:27;97690.07;;;11.19;100.00
62948;BME280;51940;52.126;-0.994;2023-03-13T10:05:13;97693.46;;;11.26;100.00
62948;BME280;51940;52.126;-0.994;2023-03-13T10:07:40;97689.52;;;11.29;100.00
62948;BME280;51940;52.126;-0.994;2023-03-13T10:10:10;97683.13;;;11.37;100.00
62948;BME280;51940;52.126;-0.994;2023-03-13T10:12:39;97689.11;;;11.43;100.00
62948;BME280;51940;52.126;-0.994;2023-03-13T10:17:50;97672.80;;;11.54;100.00
62948;BME280;51940;52.126;-0.994;2023-03-13T10:20:26;97681.04;;;11.58;100.00
62948;BME280;51940;52.126;-0.994;2023-03-13T10:23:36;97682.44;;;11.59;100.00
62948;BME280;51940;52.126;-0.994;2023-03-13T10:25:40;97679.76;;;11.61;100.00
62948;BME280;51940;52.126;-0.994;2023-03-13T10:28:24;97681.52;;;11.59;100.00
62948;BME280;51940;52.126;-0.994;2023-03-13T10:30:50;97687.19;;;11.62;100.00
62948;BME280;51940;52.126;-0.994;2023-03-13T10:33:19;97681.16;;;11.64;100.00
62948;BME280;51940;52.126;-0.994;2023-03-13T10:35:45;97681.18;;;11.64;100.00
62948;BME280;51940;52.126;-0.994;2023-03-13T10:38:22;97683.31;;;11.61;100.00
62948;BME280;51940;52.126;-0.994;2023-03-13T10:40:57;97675.23;;;11.65;100.00
62948;BME280;51940;52.126;-0.994;2023-03-13T10:43:24;97676.19;;;11.73;100.00
62948;BME280;51940;52.126;-0.994;2023-03-13T10:45:50;97676.23;;;11.83;100.00
62948;BME280;51940;52.126;-0.994;2023-03-13T10:48:20;97669.56;;;11.94;100.00
62948;BME280;51940;52.126;-0.994;2023-03-13T10:50:46;97672.20;;;11.99;100.00
62948;BME280;51940;52.126;-0.994;2023-03-13T10:53:19;97675.28;;;12.01;100.00
62948;BME280;51940;52.126;-0.994;2023-03-13T10:55:45;97667.48;;;12.07;100.00
62948;BME280;51940;52.126;-0.994;2023-03-13T10:58:16;97673.98;;;12.14;100.00
62948;BME280;51940;52.126;-0.994;2023-03-13T11:00:42;97676.08;;;12.24;100.00
62948;BME280;51940;52.126;-0.994;2023-03-13T11:03:18;97675.81;;;12.20;100.00
62948;BME280;51940;52.126;-0.994;2023-03-13T11:06:04;97679.60;;;12.08;100.00
62948;BME280;51940;52.126;-0.994;2023-03-13T11:08:33;97685.59;;;12.00;100.00
62948;BME280;51940;52.126;-0.994;2023-03-13T11:11:03;97695.74;;;11.90;100.00
62948;BME280;51940;52.126;-0.994;2023-03-13T11:13:34;97708.23;;;11.75;100.00
62948;BME280;51940;52.126;-0.994;2023-03-13T11:16:02;97710.52;;;11.63;100.00
62948;BME280;51940;52.126;-0.994;2023-03-13T11:18:32;97710.04;;;11.59;100.00
62948;BME280;51940;52.126;-0.994;2023-03-13T11:21:00;97712.70;;;11.65;100.00
62948;BME280;51940;52.126;-0.994;2023-03-13T11:23:29;97708.50;;;11.73;100.00
62948;BME280;51940;52.126;-0.994;2023-03-13T11:31:02;97699.10;;;11.91;100.00
62948;BME280;51940;52.126;-0.994;2023-03-13T11:33:45;97698.08;;;12.02;100.00
62948;BME280;51940;52.126;-0.994;2023-03-13T11:36:21;97691.79;;;12.17;100.00
62948;BME280;51940;52.126;-0.994;2023-03-13T11:38:52;97687.52;;;12.29;100.00
62948;BME280;51940;52.126;-0.994;2023-03-13T11:46:23;97685.71;;;12.41;100.00
62948;BME280;51940;52.126;-0.994;2023-03-13T11:48:53;97685.02;;;12.48;100.00
62948;BME280;51940;52.126;-0.994;2023-03-13T11:56:22;97689.02;;;12.68;100.00
62948;BME280;51940;52.126;-0.994;2023-03-13T12:01:54;97689.48;;;12.90;100.00
62948;BME280;51940;52.126;-0.994;2023-03-13T12:04:24;97699.99;;;12.91;100.00
62948;BME280;51940;52.126;-0.994;2023-03-13T12:06:58;97680.55;;;12.90;100.00
62948;BME280;51940;52.126;-0.994;2023-03-13T12:09:29;97680.38;;;12.85;100.00
62948;BME280;51940;52.126;-0.994;2023-03-13T12:12:00;97672.09;;;12.82;100.00
62948;BME280;51940;52.126;-0.994;2023-03-13T12:14:32;97671.54;;;12.79;100.00
62948;BME280;51940;52.126;-0.994;2023-03-13T12:17:02;97667.86;;;12.76;100.00
62948;BME280;51940;52.126;-0.994;2023-03-13T12:19:36;97669.25;;;12.75;100.00
62948;BME280;51940;52.126;-0.994;2023-03-13T12:22:14;97672.94;;;12.80;100.00
62948;BME280;51940;52.126;-0.994;2023-03-13T12:24:45;97672.81;;;12.86;100.00
62948;BME280;51940;52.126;-0.994;2023-03-13T12:27:17;97675.45;;;12.93;100.00
62948;BME280;51940;52.126;-0.994;2023-03-13T12:32:39;97675.31;;;13.03;100.00
62948;BME280;51940;52.126;-0.994;2023-03-13T12:45:17;97661.02;;;13.41;100.00
62948;BME280;51940;52.126;-0.994;2023-03-13T12:58:08;97646.30;;;13.88;100.00
62948;BME280;51940;52.126;-0.994;2023-03-13T13:00:35;97638.52;;;14.06;100.00
62948;BME280;51940;52.126;-0.994;2023-03-13T13:05:58;97640.98;;;14.23;100.00
62948;BME280;51940;52.126;-0.994;2023-03-13T13:08:23;97633.92;;;14.17;100.00
62948;BME280;51940;52.126;-0.994;2023-03-13T13:10:49;97631.27;;;14.09;100.00
62948;BME280;51940;52.126;-0.994;2023-03-13T13:16:02;97624.20;;;13.95;100.00
62948;BME280;51940;52.126;-0.994;2023-03-13T13:18:26;97621.05;;;13.86;100.00
62948;BME280;51940;52.126;-0.994;2023-03-13T13:28:42;97615.60;;;13.47;100.00
62948;BME280;51940;52.126;-0.994;2023-03-13T13:31:55;97616.19;;;13.40;100.00
62948;BME280;51940;52.126;-0.994;2023-03-13T13:33:54;97612.15;;;13.37;100.00
62948;BME280;51940;52.126;-0.994;2023-03-13T13:38:47;97600.77;;;13.33;100.00
62948;BME280;51940;52.126;-0.994;2023-03-13T13:43:48;97592.66;;;13.40;100.00
62948;BME280;51940;52.126;-0.994;2023-03-13T13:46:29;97578.17;;;13.60;100.00
62948;BME280;51940;52.126;-0.994;2023-03-13T13:51:38;97570.19;;;13.94;100.00
62948;BME280;51940;52.126;-0.994;2023-03-13T13:56:49;97570.99;;;14.02;100.00
62948;BME280;51940;52.126;-0.994;2023-03-13T14:01:49;97567.22;;;14.04;100.00
62948;BME280;51940;52.126;-0.994;2023-03-13T14:04:17;97567.84;;;14.03;100.00
62948;BME280;51940;52.126;-0.994;2023-03-13T14:06:44;97567.44;;;13.95;100.00
62948;BME280;51940;52.126;-0.994;2023-03-13T14:09:21;97568.90;;;13.86;100.00